Time;durP1;ratioP1;P1;durP2;ratioP2;P2;SDS_P1;SDS_P2;PMS_P1;PMS_P2;Temp;Humidity;BMP_temperature;BMP_pressure;BME280_temperature;BME280_humidity;BME280_pressure;Samples;Min_cycle;Max_cycle;Signal;HPM_P1;HPM_P2
2022/08/31 00:05:56;;;;;;;2.83;0.85;;;;;;;;;;5039307;28;20070;-71
2022/08/31 00:08:22;;;;;;;5.10;0.70;;;;;;;;;;5038747;28;20091;-71
2022/08/31 00:10:48;;;;;;;5.57;1.20;;;;;;;;;;5037923;28;20037;-70
2022/08/31 00:13:15;;;;;;;2.33;0.80;;;;;;;;;;5041349;28;21695;-71
2022/08/31 00:15:41;;;;;;;5.03;0.75;;;;;;;;;;5037884;28;20049;-71
2022/08/31 00:18:08;;;;;;;6.20;1.00;;;;;;;;;;5041016;28;20041;-71
2022/08/31 00:20:34;;;;;;;5.15;1.25;;;;;;;;;;5039808;28;20050;-71
2022/08/31 00:23:01;;;;;;;5.75;1.10;;;;;;;;;;5044031;28;20049;-71
2022/08/31 00:25:27;;;;;;;2.70;0.80;;;;;;;;;;5040912;28;20036;-70
2022/08/31 00:27:54;;;;;;;2.78;1.00;;;;;;;;;;5044282;28;20045;-71
2022/08/31 00:30:21;;;;;;;3.05;0.77;;;;;;;;;;5040923;28;20056;-71
2022/08/31 00:32:47;;;;;;;1.85;0.60;;;;;;;;;;5039917;28;20043;-71
2022/08/31 00:35:13;;;;;;;4.50;0.75;;;;;;;;;;5040680;28;20052;-71
2022/08/31 00:37:39;;;;;;;2.08;0.80;;;;;;;;;;5036038;28;20474;-71
2022/08/31 00:40:05;;;;;;;2.17;0.68;;;;;;;;;;5035541;28;20052;-71
2022/08/31 00:42:32;;;;;;;1.25;0.47;;;;;;;;;;5043614;28;20072;-70
2022/08/31 00:44:59;;;;;;;1.33;0.60;;;;;;;;;;5039486;28;20103;-70
2022/08/31 00:47:25;;;;;;;3.55;0.75;;;;;;;;;;5042504;28;20508;-71
2022/08/31 00:49:52;;;;;;;2.15;0.75;;;;;;;;;;5052214;28;20041;-70
2022/08/31 00:52:21;;;;;;;1.15;0.60;;;;;;;;;;5039322;28;20055;-71
2022/08/31 00:54:49;;;;;;;2.42;0.60;;;;;;;;;;5043159;28;20106;-71
2022/08/31 00:57:16;;;;;;;4.43;0.98;;;;;;;;;;5047834;28;20086;-71
2022/08/31 00:59:43;;;;;;;1.58;0.55;;;;;;;;;;5041862;28;20397;-71
2022/08/31 01:02:09;;;;;;;3.97;0.82;;;;;;;;;;5040188;28;20040;-71
2022/08/31 01:04:36;;;;;;;3.53;0.80;;;;;;;;;;5040487;28;20062;-71
2022/08/31 01:07:03;;;;;;;2.22;0.88;;;;;;;;;;5042081;28;20053;-71
2022/08/31 01:09:32;;;;;;;1.58;0.57;;;;;;;;;;5037586;28;20508;-71
2022/08/31 01:11:58;;;;;;;2.20;0.70;;;;;;;;;;5035113;28;20054;-71
2022/08/31 01:14:24;;;;;;;1.25;0.60;;;;;;;;;;5041929;28;20064;-71
2022/08/31 01:16:51;;;;;;;1.13;0.50;;;;;;;;;;5038181;28;20153;-71
2022/08/31 01:19:21;;;;;;;1.40;0.55;;;;;;;;;;5042897;28;20103;-71
2022/08/31 01:21:52;;;;;;;4.75;0.68;;;;;;;;;;5060008;28;20048;-71
2022/08/31 01:24:19;;;;;;;2.60;0.68;;;;;;;;;;5040007;28;20127;-71
2022/08/31 01:26:47;;;;;;;3.45;0.60;;;;;;;;;;5033882;28;20045;-71
2022/08/31 01:29:13;;;;;;;2.55;0.52;;;;;;;;;;5040893;28;20432;-71
2022/08/31 01:31:41;;;;;;;2.58;0.82;;;;;;;;;;5035116;28;20107;-71
2022/08/31 01:34:08;;;;;;;2.80;0.55;;;;;;;;;;5036432;28;20124;-71
2022/08/31 01:36:35;;;;;;;1.67;0.50;;;;;;;;;;5042189;28;20052;-71
2022/08/31 01:39:01;;;;;;;1.23;0.50;;;;;;;;;;5039484;28;20045;-71
2022/08/31 01:43:59;;;;;;;3.15;0.50;;;;;;;;;;5039804;28;20126;-71
2022/08/31 01:46:26;;;;;;;3.20;0.50;;;;;;;;;;5039263;28;20041;-71
2022/08/31 01:48:52;;;;;;;2.55;0.85;;;;;;;;;;5044303;28;20450;-70
2022/08/31 01:51:19;;;;;;;6.80;0.68;;;;;;;;;;5036308;28;20045;-71
2022/08/31 01:53:47;;;;;;;2.67;0.50;;;;;;;;;;5037852;28;20489;-71
2022/08/31 01:56:15;;;;;;;1.65;0.60;;;;;;;;;;5040299;28;20048;-71
2022/08/31 01:58:41;;;;;;;3.25;0.60;;;;;;;;;;5042541;28;20055;-70
2022/08/31 02:01:07;;;;;;;1.65;0.65;;;;;;;;;;5041279;28;20048;-71
2022/08/31 02:03:34;;;;;;;4.22;0.70;;;;;;;;;;5037672;28;20071;-71
2022/08/31 02:06:06;;;;;;;3.15;0.50;;;;;;;;;;5043133;28;20068;-71
2022/08/31 02:08:32;;;;;;;5.50;0.50;;;;;;;;;;5039117;28;20061;-71
2022/08/31 02:10:58;;;;;;;1.42;0.60;;;;;;;;;;5044754;28;20498;-71
2022/08/31 02:13:24;;;;;;;1.08;0.57;;;;;;;;;;5042862;28;20044;-71
2022/08/31 02:15:50;;;;;;;2.53;0.70;;;;;;;;;;5037407;28;20049;-70
2022/08/31 02:18:16;;;;;;;2.90;1.02;;;;;;;;;;5044312;28;20060;-71
2022/08/31 02:20:42;;;;;;;2.22;0.80;;;;;;;;;;5044519;28;20101;-71
2022/08/31 02:23:09;;;;;;;1.55;0.60;;;;;;;;;;5046069;28;20037;-71
2022/08/31 02:25:35;;;;;;;1.88;0.60;;;;;;;;;;5035185;28;20567;-71
2022/08/31 02:28:01;;;;;;;2.38;0.50;;;;;;;;;;5040060;28;20045;-71
2022/08/31 02:30:27;;;;;;;1.08;0.47;;;;;;;;;;5038731;28;20048;-71
2022/08/31 02:32:53;;;;;;;1.13;0.65;;;;;;;;;;5037455;28;20083;-71
2022/08/31 02:35:20;;;;;;;2.33;0.65;;;;;;;;;;5044506;28;20076;-71
2022/08/31 02:37:46;;;;;;;1.15;0.50;;;;;;;;;;5043452;28;20480;-71
2022/08/31 02:40:12;;;;;;;2.35;0.60;;;;;;;;;;5038298;28;20607;-71
2022/08/31 02:42:39;;;;;;;1.92;0.68;;;;;;;;;;5042019;28;20036;-71
2022/08/31 02:45:06;;;;;;;1.13;0.70;;;;;;;;;;5037619;28;20049;-71
2022/08/31 02:47:33;;;;;;;1.23;0.47;;;;;;;;;;5025442;28;20088;-71
2022/08/31 02:50:01;;;;;;;3.55;0.57;;;;;;;;;;5039636;28;20156;-71
2022/08/31 02:52:27;;;;;;;2.28;0.80;;;;;;;;;;5034653;28;20044;-70
2022/08/31 02:54:53;;;;;;;1.45;0.50;;;;;;;;;;5043052;28;20053;-70
2022/08/31 02:57:20;;;;;;;2.55;0.70;;;;;;;;;;5040883;28;20072;-70
2022/08/31 02:59:46;;;;;;;2.28;0.63;;;;;;;;;;5045388;28;20063;-71
2022/08/31 03:02:12;;;;;;;1.98;0.65;;;;;;;;;;5043018;28;20037;-71
2022/08/31 03:04:39;;;;;;;2.50;0.90;;;;;;;;;;5037217;28;20512;-70
2022/08/31 03:07:05;;;;;;;2.03;0.90;;;;;;;;;;5038563;28;20041;-71
2022/08/31 03:09:31;;;;;;;1.95;0.80;;;;;;;;;;5034860;28;20060;-71
2022/08/31 03:11:58;;;;;;;3.95;0.70;;;;;;;;;;5043862;28;20060;-71
2022/08/31 03:14:25;;;;;;;2.47;0.80;;;;;;;;;;5038152;28;20041;-71
2022/08/31 03:16:51;;;;;;;1.40;0.60;;;;;;;;;;5044131;28;20056;-71
2022/08/31 03:19:18;;;;;;;2.08;0.70;;;;;;;;;;5044262;28;20040;-71
2022/08/31 03:21:45;;;;;;;4.28;0.88;;;;;;;;;;5044879;28;20099;-71
2022/08/31 03:24:12;;;;;;;2.95;0.70;;;;;;;;;;5041702;28;20073;-71
2022/08/31 03:26:38;;;;;;;4.22;0.80;;;;;;;;;;5039887;28;20106;-71
2022/08/31 03:29:04;;;;;;;3.38;0.80;;;;;;;;;;5043101;28;20045;-71
2022/08/31 03:31:31;;;;;;;4.38;0.70;;;;;;;;;;5043941;28;21463;-71
2022/08/31 03:33:58;;;;;;;2.15;0.80;;;;;;;;;;5046455;28;20090;-71
2022/08/31 03:36:24;;;;;;;1.63;0.63;;;;;;;;;;5045781;28;20553;-71
2022/08/31 03:38:50;;;;;;;2.92;0.73;;;;;;;;;;5048974;28;20045;-71
2022/08/31 03:41:19;;;;;;;5.97;1.63;;;;;;;;;;5039903;28;20049;-71
2022/08/31 03:43:45;;;;;;;2.70;1.02;;;;;;;;;;5043622;28;20052;-71
2022/08/31 03:46:11;;;;;;;4.65;0.90;;;;;;;;;;5046763;28;20118;-71
2022/08/31 03:48:37;;;;;;;4.03;0.73;;;;;;;;;;5046873;28;20049;-71
2022/08/31 03:51:04;;;;;;;2.45;0.90;;;;;;;;;;5050824;28;20060;-71
2022/08/31 03:53:30;;;;;;;2.00;1.08;;;;;;;;;;5044748;28;20082;-71
2022/08/31 03:56:00;;;;;;;2.55;0.80;;;;;;;;;;5043158;28;20044;-71
2022/08/31 03:58:28;;;;;;;2.53;0.98;;;;;;;;;;5046659;28;20068;-71
2022/08/31 04:00:55;;;;;;;2.85;1.05;;;;;;;;;;5041747;28;20562;-71
2022/08/31 04:03:21;;;;;;;1.65;0.70;;;;;;;;;;5039752;28;20080;-71
2022/08/31 04:05:47;;;;;;;6.78;1.00;;;;;;;;;;5048212;28;20048;-71
2022/08/31 04:08:14;;;;;;;3.97;0.90;;;;;;;;;;5041316;28;20060;-71
2022/08/31 04:10:42;;;;;;;3.22;0.77;;;;;;;;;;5043456;28;20044;-71
2022/08/31 04:13:08;;;;;;;2.05;0.70;;;;;;;;;;5042858;28;20066;-71
2022/08/31 04:15:35;;;;;;;2.47;0.77;;;;;;;;;;5041968;28;20515;-71
2022/08/31 04:18:02;;;;;;;4.30;1.13;;;;;;;;;;5043175;28;20053;-71
2022/08/31 04:20:28;;;;;;;1.67;0.82;;;;;;;;;;5046166;28;20045;-71
2022/08/31 04:22:54;;;;;;;2.83;0.75;;;;;;;;;;5045539;28;20134;-71
2022/08/31 04:25:20;;;;;;;1.60;0.73;;;;;;;;;;5051487;28;20099;-71
2022/08/31 04:27:49;;;;;;;2.28;0.90;;;;;;;;;;5058261;28;20048;-72
2022/08/31 04:30:15;;;;;;;2.47;0.98;;;;;;;;;;5048305;28;20124;-71
2022/08/31 04:32:41;;;;;;;3.97;0.90;;;;;;;;;;5047009;28;20040;-68
2022/08/31 04:35:08;;;;;;;2.00;0.80;;;;;;;;;;5047183;28;20481;-68
2022/08/31 04:37:34;;;;;;;3.38;0.90;;;;;;;;;;5041032;28;20556;-68
2022/08/31 04:40:03;;;;;;;8.43;1.02;;;;;;;;;;5046222;28;20069;-68
2022/08/31 04:42:29;;;;;;;2.30;0.90;;;;;;;;;;5050112;28;20145;-68
2022/08/31 04:44:55;;;;;;;2.97;1.10;;;;;;;;;;5027771;28;20713;-72
2022/08/31 04:47:22;;;;;;;2.58;0.90;;;;;;;;;;5046560;28;20551;-71
2022/08/31 04:49:48;;;;;;;3.42;1.00;;;;;;;;;;5038873;28;20110;-71
2022/08/31 04:52:14;;;;;;;4.32;0.90;;;;;;;;;;5045073;28;20063;-70
2022/08/31 04:54:40;;;;;;;6.38;1.20;;;;;;;;;;5046748;28;20441;-70
2022/08/31 04:57:06;;;;;;;3.45;1.13;;;;;;;;;;5044655;28;20420;-69
2022/08/31 04:59:32;;;;;;;6.55;0.88;;;;;;;;;;5051319;28;20153;-70
2022/08/31 05:01:59;;;;;;;7.25;1.20;;;;;;;;;;5053633;28;20048;-70
2022/08/31 05:04:27;;;;;;;5.85;1.60;;;;;;;;;;5051160;28;20037;-69
2022/08/31 05:06:53;;;;;;;4.10;1.27;;;;;;;;;;5052561;28;20047;-70
2022/08/31 05:09:21;;;;;;;4.25;1.10;;;;;;;;;;5053775;28;20052;-71
2022/08/31 05:11:49;;;;;;;6.72;1.25;;;;;;;;;;5054399;28;20048;-71
2022/08/31 05:14:15;;;;;;;4.07;0.82;;;;;;;;;;5057438;28;20071;-71
2022/08/31 05:16:41;;;;;;;4.22;1.00;;;;;;;;;;5048476;28;20044;-69
2022/08/31 05:19:08;;;;;;;3.60;1.40;;;;;;;;;;5054683;28;20095;-76
2022/08/31 05:21:36;;;;;;;11.30;1.20;;;;;;;;;;5042560;28;20053;-70
2022/08/31 05:24:09;;;;;;;5.88;1.80;;;;;;;;;;5046521;28;20052;-70
2022/08/31 05:26:39;;;;;;;4.88;1.27;;;;;;;;;;5044920;28;20056;-71
2022/08/31 05:29:06;;;;;;;3.60;1.08;;;;;;;;;;5042379;28;20041;-70
2022/08/31 05:31:32;;;;;;;4.47;1.33;;;;;;;;;;5055321;28;20103;-70
2022/08/31 05:33:58;;;;;;;4.50;1.20;;;;;;;;;;5059399;28;20074;-71
2022/08/31 05:36:25;;;;;;;4.75;1.40;;;;;;;;;;5038715;28;20105;-71
2022/08/31 05:38:52;;;;;;;4.70;1.30;;;;;;;;;;5051601;28;20037;-71
2022/08/31 05:41:19;;;;;;;4.85;1.35;;;;;;;;;;5053809;28;20053;-70
2022/08/31 05:43:45;;;;;;;5.88;1.48;;;;;;;;;;5060372;28;20425;-70
2022/08/31 05:46:12;;;;;;;5.03;1.10;;;;;;;;;;5056235;28;20167;-70
2022/08/31 05:48:38;;;;;;;6.55;1.50;;;;;;;;;;5063064;28;20326;-71
2022/08/31 05:51:06;;;;;;;5.47;1.30;;;;;;;;;;5050893;28;20455;-70
2022/08/31 05:53:33;;;;;;;4.43;1.13;;;;;;;;;;5058427;28;20049;-71
2022/08/31 05:56:00;;;;;;;4.90;1.20;;;;;;;;;;5054602;28;20124;-71
2022/08/31 05:58:27;;;;;;;2.95;1.20;;;;;;;;;;5059310;28;20040;-71
2022/08/31 06:00:53;;;;;;;5.90;1.20;;;;;;;;;;5060757;28;20119;-71
2022/08/31 06:03:19;;;;;;;4.57;1.13;;;;;;;;;;5057606;28;20044;-71
2022/08/31 06:05:45;;;;;;;2.50;0.98;;;;;;;;;;5059709;28;20044;-72
2022/08/31 06:08:11;;;;;;;3.88;1.40;;;;;;;;;;5062636;28;20043;-71
2022/08/31 06:10:37;;;;;;;2.38;1.00;;;;;;;;;;5056119;28;20364;-71
2022/08/31 06:13:04;;;;;;;2.88;1.20;;;;;;;;;;5061749;28;20069;-71
2022/08/31 06:15:30;;;;;;;2.80;1.10;;;;;;;;;;5057362;28;20075;-68
2022/08/31 06:17:56;;;;;;;4.35;1.35;;;;;;;;;;5060928;28;20036;-71
2022/08/31 06:20:22;;;;;;;2.55;1.25;;;;;;;;;;5057744;28;20511;-72
2022/08/31 06:22:48;;;;;;;3.65;1.33;;;;;;;;;;5060489;28;20117;-72
2022/08/31 06:25:18;;;;;;;4.30;1.15;;;;;;;;;;5053199;28;20038;-72
2022/08/31 06:27:49;;;;;;;3.15;1.42;;;;;;;;;;5062382;28;20047;-72
2022/08/31 06:30:18;;;;;;;4.32;1.48;;;;;;;;;;5064596;28;20037;-72
2022/08/31 06:32:45;;;;;;;5.90;1.48;;;;;;;;;;5060793;28;20041;-72
2022/08/31 06:35:11;;;;;;;3.92;1.50;;;;;;;;;;5056637;28;20044;-72
2022/08/31 06:37:38;;;;;;;3.13;1.15;;;;;;;;;;5064104;28;20040;-72
2022/08/31 06:40:04;;;;;;;2.95;1.20;;;;;;;;;;5063753;28;20051;-72
2022/08/31 06:42:30;;;;;;;5.70;1.42;;;;;;;;;;5058004;28;20378;-72
2022/08/31 06:44:57;;;;;;;2.67;1.00;;;;;;;;;;5065943;28;20089;-71
2022/08/31 06:47:23;;;;;;;4.30;1.08;;;;;;;;;;5056739;28;20069;-71
2022/08/31 06:49:49;;;;;;;2.38;0.90;;;;;;;;;;5055703;28;20449;-70
2022/08/31 06:52:16;;;;;;;3.72;1.30;;;;;;;;;;5064992;28;20045;-72
2022/08/31 06:54:42;;;;;;;4.22;1.45;;;;;;;;;;5061158;28;20412;-70
2022/08/31 06:57:09;;;;;;;4.03;1.08;;;;;;;;;;5060949;28;20182;-70
2022/08/31 06:59:35;;;;;;;6.32;1.60;;;;;;;;;;5054655;28;20151;-70
2022/08/31 07:02:02;;;;;;;4.95;1.23;;;;;;;;;;5062423;28;20072;-70
2022/08/31 07:04:31;;;;;;;4.70;0.95;;;;;;;;;;5060267;28;20045;-70
2022/08/31 07:06:57;;;;;;;3.97;1.27;;;;;;;;;;5060504;28;20500;-70
2022/08/31 07:09:23;;;;;;;2.83;1.35;;;;;;;;;;5062145;28;20045;-70
2022/08/31 07:11:51;;;;;;;4.63;1.20;;;;;;;;;;5054716;28;20049;-70
2022/08/31 07:14:20;;;;;;;2.00;0.90;;;;;;;;;;5056617;28;20067;-70
2022/08/31 07:16:47;;;;;;;5.45;1.10;;;;;;;;;;5054478;28;20036;-71
2022/08/31 07:19:14;;;;;;;3.85;1.67;;;;;;;;;;5073978;28;21585;-70
2022/08/31 07:21:42;;;;;;;3.83;0.98;;;;;;;;;;5065846;28;20053;-70
2022/08/31 07:24:09;;;;;;;1.42;0.75;;;;;;;;;;5062133;28;20040;-71
2022/08/31 07:26:37;;;;;;;2.45;1.20;;;;;;;;;;5062756;28;20530;-70
2022/08/31 07:29:05;;;;;;;4.68;1.40;;;;;;;;;;5064288;28;20047;-71
2022/08/31 07:31:45;;;;;;;2.10;1.02;;;;;;;;;;5062863;28;20055;-71
2022/08/31 07:34:12;;;;;;;4.13;1.10;;;;;;;;;;5059098;28;20388;-70
2022/08/31 07:42:08;;;;;;;2.90;0.60;;;;;;;;;;5063663;28;20447;-70
2022/08/31 07:44:35;;;;;;;6.43;0.93;;;;;;;;;;5059192;28;20037;-70
2022/08/31 07:47:01;;;;;;;2.67;0.80;;;;;;;;;;5065120;28;20040;-71
2022/08/31 07:49:29;;;;;;;2.67;0.98;;;;;;;;;;5061781;28;20106;-70
2022/08/31 07:51:56;;;;;;;4.28;1.15;;;;;;;;;;5066686;28;20415;-70
2022/08/31 07:54:26;;;;;;;2.28;0.80;;;;;;;;;;5060559;28;20102;-70
2022/08/31 07:57:02;;;;;;;3.83;0.88;;;;;;;;;;5031991;28;20050;-71
2022/08/31 07:59:29;;;;;;;3.03;1.05;;;;;;;;;;5061909;28;20094;-71
2022/08/31 08:01:55;;;;;;;3.58;0.90;;;;;;;;;;5058456;28;20174;-70
2022/08/31 08:04:25;;;;;;;2.25;0.63;;;;;;;;;;5063488;28;20043;-71
2022/08/31 08:06:54;;;;;;;2.20;0.90;;;;;;;;;;5058679;28;20451;-71
2022/08/31 08:09:22;;;;;;;2.22;0.70;;;;;;;;;;5065663;28;20044;-71
2022/08/31 08:11:53;;;;;;;1.77;0.60;;;;;;;;;;5061302;28;20116;-71
2022/08/31 08:14:19;;;;;;;4.88;1.20;;;;;;;;;;5063339;28;20518;-73
2022/08/31 08:16:45;;;;;;;3.42;0.85;;;;;;;;;;5056492;28;20041;-71
2022/08/31 08:19:12;;;;;;;4.10;0.90;;;;;;;;;;5050612;28;20055;-69
2022/08/31 08:21:38;;;;;;;3.78;0.77;;;;;;;;;;5058024;28;20066;-69
2022/08/31 08:24:04;;;;;;;2.53;0.93;;;;;;;;;;5059950;28;20044;-70
2022/08/31 08:26:30;;;;;;;5.32;0.80;;;;;;;;;;5058311;28;20048;-69
2022/08/31 08:28:57;;;;;;;1.30;0.60;;;;;;;;;;5057581;28;20060;-69
2022/08/31 08:31:23;;;;;;;2.92;0.63;;;;;;;;;;5056281;28;20101;-70
2022/08/31 08:33:51;;;;;;;1.40;0.50;;;;;;;;;;5064289;28;20041;-70
2022/08/31 08:36:18;;;;;;;1.80;0.73;;;;;;;;;;5054256;28;20041;-69
2022/08/31 08:38:46;;;;;;;2.65;0.80;;;;;;;;;;5059785;28;20135;-70
2022/08/31 08:41:15;;;;;;;2.78;0.70;;;;;;;;;;5065089;28;20037;-70
2022/08/31 08:43:43;;;;;;;3.00;0.85;;;;;;;;;;5063545;28;20064;-70
2022/08/31 08:46:12;;;;;;;1.20;0.50;;;;;;;;;;5056023;28;20059;-70
2022/08/31 08:48:40;;;;;;;2.33;0.65;;;;;;;;;;5064379;28;20460;-70
2022/08/31 08:51:12;;;;;;;3.33;0.65;;;;;;;;;;5053595;28;20045;-70
2022/08/31 08:53:40;;;;;;;1.27;0.60;;;;;;;;;;5063345;28;20064;-70
2022/08/31 08:56:07;;;;;;;2.70;0.60;;;;;;;;;;5061076;28;20134;-69
2022/08/31 08:58:34;;;;;;;3.72;0.95;;;;;;;;;;5061146;28;20089;-70
2022/08/31 09:01:01;;;;;;;2.97;0.70;;;;;;;;;;5066846;28;20064;-70
2022/08/31 09:03:41;;;;;;;5.05;0.90;;;;;;;;;;5057109;28;20040;-70
2022/08/31 09:06:16;;;;;;;2.00;0.60;;;;;;;;;;5052905;28;20661;-70
2022/08/31 09:08:58;;;;;;;2.97;0.52;;;;;;;;;;5051040;28;20471;-69
2022/08/31 09:11:45;;;;;;;2.60;0.70;;;;;;;;;;5059269;28;20076;-69
2022/08/31 09:14:30;;;;;;;1.70;0.70;;;;;;;;;;5088697;28;20044;-69
2022/08/31 09:17:15;;;;;;;1.48;0.68;;;;;;;;;;5061263;28;20056;-69
2022/08/31 09:19:58;;;;;;;3.20;0.60;;;;;;;;;;5058919;28;20138;-66
2022/08/31 09:22:25;;;;;;;1.67;0.65;;;;;;;;;;5060558;28;20063;-69
2022/08/31 09:24:55;;;;;;;3.13;0.70;;;;;;;;;;5056686;28;20049;-69
2022/08/31 09:27:44;;;;;;;3.15;0.85;;;;;;;;;;5043089;28;20040;-69
2022/08/31 09:30:10;;;;;;;4.15;0.98;;;;;;;;;;5052827;28;20064;-69
2022/08/31 09:32:37;;;;;;;2.80;0.70;;;;;;;;;;5048724;28;20186;-69
2022/08/31 09:35:05;;;;;;;2.50;0.65;;;;;;;;;;5058138;28;20040;-69
2022/08/31 09:37:32;;;;;;;2.75;0.80;;;;;;;;;;5058342;28;20127;-69
2022/08/31 09:40:13;;;;;;;2.20;0.70;;;;;;;;;;5062667;28;20119;-67
2022/08/31 09:42:40;;;;;;;3.50;1.00;;;;;;;;;;5057009;28;20045;-67
2022/08/31 09:45:11;;;;;;;1.00;0.50;;;;;;;;;;5059299;28;20046;-67
2022/08/31 09:47:45;;;;;;;1.70;0.80;;;;;;;;;;5058337;28;20051;-67
2022/08/31 09:50:23;;;;;;;1.95;0.95;;;;;;;;;;5058214;28;20372;-68
2022/08/31 09:55:34;;;;;;;2.22;0.70;;;;;;;;;;5059877;28;20048;-68
2022/08/31 09:58:06;;;;;;;3.58;0.80;;;;;;;;;;5060508;28;20087;-68
2022/08/31 10:00:38;;;;;;;1.05;0.50;;;;;;;;;;5061149;28;20052;-68
2022/08/31 10:03:08;;;;;;;3.85;0.60;;;;;;;;;;5057651;28;20122;-68
2022/08/31 10:05:42;;;;;;;2.78;0.80;;;;;;;;;;5050573;28;20091;-68
2022/08/31 10:08:26;;;;;;;2.50;0.68;;;;;;;;;;5048970;28;20088;-68
2022/08/31 10:10:57;;;;;;;3.00;0.60;;;;;;;;;;5051005;28;20649;-68
2022/08/31 10:13:33;;;;;;;1.63;0.52;;;;;;;;;;5047832;28;20168;-68
2022/08/31 10:16:10;;;;;;;2.25;0.68;;;;;;;;;;5057975;28;20151;-68
2022/08/31 10:18:38;;;;;;;3.55;0.50;;;;;;;;;;5052825;28;20499;-68
2022/08/31 10:21:06;;;;;;;1.55;0.52;;;;;;;;;;5053266;28;20123;-68
2022/08/31 10:23:37;;;;;;;1.30;0.60;;;;;;;;;;5044906;28;20107;-68
2022/08/31 10:26:10;;;;;;;1.05;0.52;;;;;;;;;;5059755;28;20486;-68
2022/08/31 10:28:43;;;;;;;1.30;0.40;;;;;;;;;;5054116;28;20441;-68
2022/08/31 10:31:15;;;;;;;2.35;0.75;;;;;;;;;;5050863;28;20072;-68
2022/08/31 10:36:35;;;;;;;4.60;0.52;;;;;;;;;;5060187;28;20519;-68
2022/08/31 10:39:02;;;;;;;1.80;0.57;;;;;;;;;;5051226;28;20049;-68
2022/08/31 10:41:31;;;;;;;2.00;0.90;;;;;;;;;;5057563;28;20036;-68
2022/08/31 10:44:01;;;;;;;2.00;0.60;;;;;;;;;;5056281;28;20639;-68
2022/08/31 10:46:33;;;;;;;2.83;0.65;;;;;;;;;;5059559;28;20096;-68
2022/08/31 10:49:01;;;;;;;3.05;0.60;;;;;;;;;;5048411;28;20327;-68
2022/08/31 10:51:33;;;;;;;3.28;0.85;;;;;;;;;;5058180;28;20338;-68
2022/08/31 10:54:06;;;;;;;1.88;0.70;;;;;;;;;;5058677;28;20041;-69
2022/08/31 10:56:40;;;;;;;6.53;0.60;;;;;;;;;;5053950;28;20402;-68
2022/08/31 10:59:13;;;;;;;1.90;0.70;;;;;;;;;;5059444;28;20063;-69
2022/08/31 11:01:46;;;;;;;1.65;0.50;;;;;;;;;;5058507;28;20041;-68
2022/08/31 11:04:13;;;;;;;0.73;0.47;;;;;;;;;;5052701;28;20045;-69
2022/08/31 11:06:59;;;;;;;4.20;0.60;;;;;;;;;;5058262;28;20147;-69
2022/08/31 11:09:32;;;;;;;4.45;0.80;;;;;;;;;;5056415;28;20045;-68
2022/08/31 11:12:06;;;;;;;2.72;0.80;;;;;;;;;;5055414;28;20119;-68
2022/08/31 11:14:57;;;;;;;2.08;0.60;;;;;;;;;;5054362;28;20054;-68
2022/08/31 11:17:25;;;;;;;2.50;0.80;;;;;;;;;;5050751;28;21025;-69
2022/08/31 11:19:59;;;;;;;4.18;0.90;;;;;;;;;;5052679;28;20091;-68
2022/08/31 11:22:35;;;;;;;2.90;0.90;;;;;;;;;;5052523;28;20101;-68
2022/08/31 11:25:08;;;;;;;2.95;0.80;;;;;;;;;;5055057;28;20404;-68
2022/08/31 11:27:38;;;;;;;3.33;0.90;;;;;;;;;;5053081;28;20105;-68
2022/08/31 11:30:10;;;;;;;3.53;0.50;;;;;;;;;;5056096;28;20067;-68
2022/08/31 11:32:36;;;;;;;3.30;0.60;;;;;;;;;;5051108;28;20080;-68
2022/08/31 11:35:07;;;;;;;5.38;0.70;;;;;;;;;;5056996;28;20040;-68
2022/08/31 11:37:51;;;;;;;3.42;0.60;;;;;;;;;;5054813;28;20056;-68
2022/08/31 11:40:42;;;;;;;1.95;0.73;;;;;;;;;;5053503;28;20087;-68
2022/08/31 11:43:13;;;;;;;1.88;0.73;;;;;;;;;;5047162;28;20441;-69
2022/08/31 11:45:39;;;;;;;3.50;0.85;;;;;;;;;;5054925;28;20052;-68
2022/08/31 11:48:09;;;;;;;2.95;0.80;;;;;;;;;;5055811;28;20055;-68
2022/08/31 11:50:36;;;;;;;3.85;0.60;;;;;;;;;;5060163;28;20175;-68
2022/08/31 11:53:24;;;;;;;6.90;0.95;;;;;;;;;;5058270;28;20118;-69
2022/08/31 11:55:51;;;;;;;4.15;0.60;;;;;;;;;;5057277;28;20056;-68
2022/08/31 11:58:24;;;;;;;3.28;0.60;;;;;;;;;;5058956;28;20056;-69
2022/08/31 12:00:52;;;;;;;1.88;0.70;;;;;;;;;;5060396;28;20040;-68
2022/08/31 12:03:33;;;;;;;2.95;0.65;;;;;;;;;;5062681;28;20060;-68
2022/08/31 12:05:59;;;;;;;3.10;0.68;;;;;;;;;;5062048;28;20048;-69
2022/08/31 12:08:31;;;;;;;3.45;0.80;;;;;;;;;;5061512;28;20416;-68
2022/08/31 12:10:57;;;;;;;2.08;0.60;;;;;;;;;;5059139;28;20111;-68
2022/08/31 12:13:31;;;;;;;3.25;0.88;;;;;;;;;;5059605;28;20132;-68
2022/08/31 12:15:59;;;;;;;1.52;0.60;;;;;;;;;;5063284;28;20044;-68
2022/08/31 12:18:37;;;;;;;3.60;0.55;;;;;;;;;;5061745;28;20045;-68
2022/08/31 12:23:59;;;;;;;1.95;0.60;;;;;;;;;;5058430;28;20541;-68
2022/08/31 12:26:39;;;;;;;4.53;0.80;;;;;;;;;;5061178;28;20447;-68
2022/08/31 12:29:19;;;;;;;5.45;1.17;;;;;;;;;;5060960;28;20397;-68
2022/08/31 12:32:01;;;;;;;4.78;0.85;;;;;;;;;;5060520;28;20055;-68
2022/08/31 12:34:28;;;;;;;2.67;0.90;;;;;;;;;;5060838;28;20576;-68
2022/08/31 12:36:55;;;;;;;2.35;0.65;;;;;;;;;;5063614;28;20333;-68
2022/08/31 12:39:23;;;;;;;3.83;0.90;;;;;;;;;;5054869;28;20040;-68
2022/08/31 12:41:51;;;;;;;2.83;0.70;;;;;;;;;;5062317;28;20166;-67
2022/08/31 12:44:35;;;;;;;5.70;0.80;;;;;;;;;;5060530;28;20076;-68
2022/08/31 12:47:04;;;;;;;2.75;0.70;;;;;;;;;;5059723;28;20105;-68
2022/08/31 12:49:36;;;;;;;3.17;0.60;;;;;;;;;;5060055;28;20090;-67
2022/08/31 12:52:14;;;;;;;2.78;0.55;;;;;;;;;;5057739;28;20049;-67
2022/08/31 12:54:41;;;;;;;6.15;0.90;;;;;;;;;;5059069;28;20112;-68
2022/08/31 12:57:26;;;;;;;1.45;0.65;;;;;;;;;;5062208;28;20048;-68
2022/08/31 12:59:55;;;;;;;3.83;0.90;;;;;;;;;;5056251;28;20120;-68
2022/08/31 13:02:22;;;;;;;1.23;0.73;;;;;;;;;;5063197;28;20101;-68
2022/08/31 13:04:48;;;;;;;3.85;0.63;;;;;;;;;;5060975;28;20044;-67
2022/08/31 13:07:18;;;;;;;7.55;1.00;;;;;;;;;;5057955;28;20061;-67
2022/08/31 13:09:44;;;;;;;6.88;1.02;;;;;;;;;;5061331;28;20068;-66
2022/08/31 13:12:20;;;;;;;6.13;1.00;;;;;;;;;;5059490;28;20484;-68
2022/08/31 13:14:46;;;;;;;2.42;1.02;;;;;;;;;;5060087;28;20036;-68
2022/08/31 13:17:14;;;;;;;5.28;0.93;;;;;;;;;;5036679;28;20055;-68
2022/08/31 13:19:46;;;;;;;3.92;0.77;;;;;;;;;;5058383;28;20563;-68
2022/08/31 13:22:15;;;;;;;2.22;0.88;;;;;;;;;;5060622;28;20045;-67
2022/08/31 13:24:43;;;;;;;2.40;0.57;;;;;;;;;;5057457;28;20602;-68
2022/08/31 13:27:19;;;;;;;2.10;0.63;;;;;;;;;;5059756;28;20488;-68
2022/08/31 13:29:46;;;;;;;10.25;1.25;;;;;;;;;;5061870;28;20068;-68
2022/08/31 13:32:29;;;;;;;8.70;1.30;;;;;;;;;;5061159;28;20040;-67
2022/08/31 13:34:56;;;;;;;;;;;;;;;;;;5057789;28;20080;-68
2022/08/31 13:37:30;;;;;;;6.25;0.70;;;;;;;;;;5060592;28;20339;-67
2022/08/31 13:39:57;;;;;;;5.68;0.50;;;;;;;;;;5086750;28;20052;-67
2022/08/31 13:42:24;;;;;;;4.10;0.43;;;;;;;;;;5050000;28;20045;-67
2022/08/31 13:44:54;;;;;;;1.58;0.40;;;;;;;;;;5049366;28;20036;-67
2022/08/31 13:47:22;;;;;;;5.57;0.82;;;;;;;;;;5042477;28;20487;-67
2022/08/31 13:49:51;;;;;;;3.67;0.65;;;;;;;;;;5037006;28;20045;-67
2022/08/31 13:52:20;;;;;;;2.50;0.82;;;;;;;;;;5050647;28;20116;-67
2022/08/31 13:55:03;;;;;;;8.23;0.50;;;;;;;;;;5037686;28;20065;-66
2022/08/31 13:57:30;;;;;;;5.90;0.93;;;;;;;;;;5043327;28;20052;-67
2022/08/31 14:00:16;;;;;;;4.38;0.63;;;;;;;;;;5041550;28;20055;-67
2022/08/31 14:02:43;;;;;;;6.70;0.82;;;;;;;;;;5044754;28;20040;-67
2022/08/31 14:05:11;;;;;;;5.30;0.88;;;;;;;;;;5043346;28;20186;-66
2022/08/31 14:07:39;;;;;;;6.25;0.90;;;;;;;;;;5039634;28;20060;-67
2022/08/31 14:10:13;;;;;;;2.28;0.77;;;;;;;;;;5037454;28;20124;-68
2022/08/31 14:12:46;;;;;;;4.03;0.73;;;;;;;;;;5042715;28;20143;-65
2022/08/31 14:15:21;;;;;;;4.20;0.70;;;;;;;;;;5036558;28;20081;-67
2022/08/31 14:17:51;;;;;;;2.08;0.60;;;;;;;;;;5038997;28;20079;-76
2022/08/31 14:20:32;;;;;;;6.15;1.33;;;;;;;;;;5040611;28;20047;-68
2022/08/31 14:23:18;;;;;;;8.48;1.20;;;;;;;;;;5039870;28;20068;-67
2022/08/31 14:25:44;;;;;;;6.03;0.90;;;;;;;;;;5038891;28;20132;-67
2022/08/31 14:28:11;;;;;;;3.90;0.80;;;;;;;;;;5040159;28;20124;-67
2022/08/31 14:30:38;;;;;;;3.72;0.98;;;;;;;;;;5044271;28;20554;-68
2022/08/31 14:33:04;;;;;;;3.53;0.95;;;;;;;;;;5035193;28;20033;-69
2022/08/31 14:35:31;;;;;;;2.47;0.77;;;;;;;;;;5029262;28;20044;-67
2022/08/31 14:37:57;;;;;;;5.38;0.80;;;;;;;;;;5037331;28;20049;-68
2022/08/31 14:40:23;;;;;;;8.25;1.00;;;;;;;;;;5039573;28;20045;-67
2022/08/31 14:42:50;;;;;;;3.53;0.77;;;;;;;;;;5036861;28;20530;-68
2022/08/31 14:45:18;;;;;;;3.38;0.75;;;;;;;;;;5043460;28;20517;-68
2022/08/31 14:47:46;;;;;;;6.03;0.82;;;;;;;;;;5037123;28;20045;-68
2022/08/31 14:50:20;;;;;;;4.53;1.00;;;;;;;;;;5035450;28;20052;-68
2022/08/31 14:52:51;;;;;;;5.85;0.90;;;;;;;;;;5039829;28;20064;-68
2022/08/31 14:55:18;;;;;;;3.45;0.90;;;;;;;;;;5037114;28;20032;-68
2022/08/31 14:57:45;;;;;;;3.92;0.80;;;;;;;;;;5035123;28;20403;-76
2022/08/31 15:00:13;;;;;;;6.55;0.95;;;;;;;;;;5037374;28;20045;-68
2022/08/31 15:02:40;;;;;;;5.18;1.10;;;;;;;;;;5036937;28;20135;-68
2022/08/31 15:05:08;;;;;;;3.90;0.90;;;;;;;;;;5040280;28;20487;-68
2022/08/31 15:07:37;;;;;;;3.17;0.65;;;;;;;;;;5040046;28;20476;-68
2022/08/31 15:10:05;;;;;;;4.85;0.90;;;;;;;;;;5037203;28;20041;-69
2022/08/31 15:12:32;;;;;;;2.22;0.88;;;;;;;;;;5029750;28;20044;-70
2022/08/31 15:14:59;;;;;;;14.38;1.60;;;;;;;;;;5048308;28;20547;-70